createdAt,value
2023-06-15T00:01:20.062Z,98661.34
2023-06-15T00:11:27.116Z,98652.63
2023-06-15T00:21:35.465Z,98652.44
2023-06-15T00:31:43.177Z,98652.73
2023-06-15T00:41:50.130Z,98652.48
2023-06-15T00:51:58.538Z,98645.69
2023-06-15T01:02:06.273Z,98636.47
2023-06-15T01:12:16.150Z,98636.73
2023-06-15T01:22:36.316Z,98632.54
2023-06-15T01:32:43.848Z,98627.21
2023-06-15T01:42:52.776Z,98624.31
2023-06-15T01:52:59.977Z,98626.03
2023-06-15T02:03:07.546Z,98625.66
2023-06-15T02:13:14.686Z,98629.52
2023-06-15T02:23:21.074Z,98631.73
2023-06-15T02:33:28.775Z,98627.13
2023-06-15T02:43:36.271Z,98624.11
2023-06-15T02:53:45.040Z,98627.05
2023-06-15T03:03:53.236Z,98620.33
2023-06-15T03:14:00.174Z,98623.92
2023-06-15T03:24:09.634Z,98638.44
2023-06-15T03:34:16.159Z,98640.71
2023-06-15T03:44:21.142Z,98645.30
2023-06-15T03:54:28.184Z,98654.20
2023-06-15T04:04:35.310Z,98656.29
2023-06-15T04:14:43.490Z,98653.52
2023-06-15T04:24:52.806Z,98657.70
2023-06-15T04:34:59.209Z,98656.57
2023-06-15T04:45:07.463Z,98656.20
2023-06-15T04:55:14.887Z,98655.27
2023-06-15T05:05:23.134Z,98655.27
2023-06-15T05:15:30.475Z,98658.56
2023-06-15T05:25:37.512Z,98659.60
2023-06-15T05:35:44.680Z,98668.42
2023-06-15T05:45:50.963Z,98677.45
2023-06-15T06:06:11.086Z,98686.58
2023-06-15T06:16:18.285Z,98686.55
2023-06-15T06:26:25.620Z,98690.24
2023-06-15T06:36:32.922Z,98691.75
2023-06-15T06:46:40.315Z,98698.90
2023-06-15T06:56:45.804Z,98701.15
2023-06-15T07:06:53.030Z,98695.88
2023-06-15T07:17:00.285Z,98704.48
2023-06-15T07:27:06.935Z,98704.52
2023-06-15T07:37:14.071Z,98712.73
2023-06-15T07:47:21.326Z,98706.82
2023-06-15T07:57:27.781Z,98699.27
2023-06-15T08:07:34.083Z,98691.44
2023-06-15T08:17:41.961Z,98689.25
2023-06-15T08:27:49.180Z,98695.19
2023-06-15T08:37:56.442Z,98699.80
2023-06-15T08:48:07.689Z,98697.10
2023-06-15T08:58:16.198Z,98691.89
2023-06-15T09:08:24.051Z,98697.52
2023-06-15T09:28:45.822Z,98699.10
2023-06-15T09:38:54.265Z,98700.09
2023-06-15T09:49:01.279Z,98699.48
2023-06-15T09:59:08.581Z,98704.48
2023-06-15T10:09:17.789Z,98701.09
2023-06-15T10:19:23.216Z,98700.23
2023-06-15T10:29:33.046Z,98703.98
2023-06-15T10:39:43.546Z,98698.49
2023-06-15T10:49:57.329Z,98705.02
2023-06-15T11:00:04.502Z,98692.48
2023-06-15T11:10:12.484Z,98687.73
2023-06-15T11:20:50.484Z,98684.86
2023-06-15T11:31:00.088Z,98685.86
2023-06-15T11:41:09.543Z,98676.22
2023-06-15T11:51:18.700Z,98669.85
2023-06-15T12:01:29.458Z,98664.00
2023-06-15T12:11:39.869Z,98660.85
2023-06-15T12:21:48.601Z,98665.98
2023-06-15T12:31:57.890Z,98666.48
2023-06-15T12:42:04.204Z,98654.83
2023-06-15T12:52:10.990Z,98651.00
2023-06-15T13:02:18.283Z,98650.44
2023-06-15T13:12:26.447Z,98634.84
2023-06-15T13:22:34.283Z,98620.92
2023-06-15T13:32:44.496Z,98617.23
2023-06-15T13:52:59.393Z,98614.56
2023-06-15T14:03:07.590Z,98609.01
2023-06-15T14:13:17.875Z,98607.00
2023-06-15T14:23:25.920Z,98603.48
2023-06-15T14:33:33.174Z,98602.27
2023-06-15T14:43:40.910Z,98597.92
2023-06-15T14:53:46.471Z,98591.21
2023-06-15T15:03:52.383Z,98587.41
2023-06-15T15:14:02.417Z,98569.92
2023-06-15T15:24:06.331Z,98562.02
2023-06-15T15:34:13.635Z,98559.08
2023-06-15T15:44:20.712Z,98552.52
2023-06-15T15:54:28.144Z,98551.45
2023-06-15T16:04:34.231Z,98551.56
2023-06-15T16:14:42.624Z,98550.34
2023-06-15T16:24:53.147Z,98553.85
2023-06-15T16:35:00.447Z,98555.88
2023-06-15T16:45:07.920Z,98559.20
2023-06-15T16:55:13.931Z,98559.84
2023-06-15T17:05:20.454Z,98560.61
2023-06-15T17:15:27.412Z,98555.92
2023-06-15T17:25:35.273Z,98565.11
2023-06-15T17:35:42.653Z,98555.66
2023-06-15T17:45:49.912Z,98559.21
2023-06-15T17:56:01.663Z,98564.02
2023-06-15T18:06:10.124Z,98569.42
2023-06-15T18:16:19.285Z,98570.21
2023-06-15T18:26:26.905Z,98569.21
2023-06-15T18:36:34.341Z,98571.40
2023-06-15T18:46:41.944Z,98573.05
2023-06-15T18:56:48.643Z,98584.48
2023-06-15T19:06:55.991Z,98597.10
2023-06-15T19:17:03.174Z,98606.70
2023-06-15T19:27:11.484Z,98615.85
2023-06-15T19:37:18.792Z,98619.84
2023-06-15T19:47:26.099Z,98619.36
2023-06-15T19:57:33.172Z,98623.37
2023-06-15T20:07:40.529Z,98620.09
2023-06-15T20:17:47.732Z,98616.10
2023-06-15T20:27:55.543Z,98610.64
2023-06-15T20:38:02.749Z,98613.77
2023-06-15T20:48:10.235Z,98614.27
2023-06-15T20:58:17.961Z,98616.02
2023-06-15T21:08:25.363Z,98607.73
2023-06-15T21:18:31.870Z,98598.80
2023-06-15T21:28:39.173Z,98594.13
2023-06-15T21:38:45.003Z,98590.23
2023-06-15T21:48:52.222Z,98583.52
2023-06-15T21:58:59.611Z,98576.02
2023-06-15T22:09:08.732Z,98572.05
2023-06-15T22:19:16.130Z,98571.96
2023-06-15T22:29:23.421Z,98569.64
2023-06-15T22:39:29.445Z,98567.04
2023-06-15T22:49:40.464Z,98565.17
2023-06-15T22:59:47.904Z,98555.76
2023-06-15T23:09:55.325Z,98553.66
2023-06-15T23:20:06.164Z,98551.20
2023-06-15T23:30:14.630Z,98537.38
2023-06-15T23:40:21.711Z,98544.29
2023-06-15T23:50:28.952Z,98542.23
